sensor_id;sensor_type;location;lat;lon;timestamp;P1;durP1;ratioP1;P2;durP2;ratioP2
55489;SDS011;44029;52.956;4.772;2022-12-29T00:02:03;18.98;;;2.28;;
55489;SDS011;44029;52.956;4.772;2022-12-29T00:04:29;12.35;;;2.13;;
55489;SDS011;44029;52.956;4.772;2022-12-29T00:06:54;19.33;;;2.55;;
55489;SDS011;44029;52.956;4.772;2022-12-29T00:09:19;62.28;;;19.33;;
55489;SDS011;44029;52.956;4.772;2022-12-29T00:11:45;14.30;;;2.63;;
55489;SDS011;44029;52.956;4.772;2022-12-29T00:14:11;32.70;;;10.82;;
55489;SDS011;44029;52.956;4.772;2022-12-29T00:16:55;16.10;;;2.90;;
55489;SDS011;44029;52.956;4.772;2022-12-29T00:19:21;15.32;;;4.07;;
55489;SDS011;44029;52.956;4.772;2022-12-29T00:22:05;17.35;;;2.72;;
55489;SDS011;44029;52.956;4.772;2022-12-29T00:24:49;25.10;;;5.78;;
55489;SDS011;44029;52.956;4.772;2022-12-29T00:27:30;18.63;;;2.40;;
55489;SDS011;44029;52.956;4.772;2022-12-29T00:30:17;16.40;;;3.35;;
55489;SDS011;44029;52.956;4.772;2022-12-29T00:33:19;28.38;;;3.83;;
55489;SDS011;44029;52.956;4.772;2022-12-29T00:36:06;25.77;;;3.15;;
55489;SDS011;44029;52.956;4.772;2022-12-29T00:38:39;13.90;;;3.45;;
55489;SDS011;44029;52.956;4.772;2022-12-29T00:44:14;14.45;;;2.47;;
55489;SDS011;44029;52.956;4.772;2022-12-29T00:46:40;18.25;;;4.22;;
55489;SDS011;44029;52.956;4.772;2022-12-29T00:49:07;32.40;;;4.95;;
55489;SDS011;44029;52.956;4.772;2022-12-29T00:51:53;20.83;;;3.70;;
55489;SDS011;44029;52.956;4.772;2022-12-29T00:54:20;19.17;;;2.42;;
55489;SDS011;44029;52.956;4.772;2022-12-29T00:56:46;22.02;;;3.72;;
55489;SDS011;44029;52.956;4.772;2022-12-29T00:59:12;18.58;;;3.97;;
55489;SDS011;44029;52.956;4.772;2022-12-29T01:01:38;14.18;;;2.47;;
55489;SDS011;44029;52.956;4.772;2022-12-29T01:04:04;15.43;;;3.25;;
55489;SDS011;44029;52.956;4.772;2022-12-29T01:06:30;32.28;;;3.70;;
55489;SDS011;44029;52.956;4.772;2022-12-29T01:08:57;11.60;;;3.00;;
55489;SDS011;44029;52.956;4.772;2022-12-29T01:11:41;11.95;;;1.88;;
55489;SDS011;44029;52.956;4.772;2022-12-29T01:14:06;26.45;;;3.33;;
55489;SDS011;44029;52.956;4.772;2022-12-29T01:16:32;16.40;;;3.75;;
55489;SDS011;44029;52.956;4.772;2022-12-29T01:18:58;12.10;;;2.67;;
55489;SDS011;44029;52.956;4.772;2022-12-29T01:21:24;21.13;;;2.55;;
55489;SDS011;44029;52.956;4.772;2022-12-29T01:23:50;15.35;;;2.47;;
55489;SDS011;44029;52.956;4.772;2022-12-29T01:26:16;22.17;;;2.88;;
55489;SDS011;44029;52.956;4.772;2022-12-29T01:28:42;18.67;;;3.55;;
55489;SDS011;44029;52.956;4.772;2022-12-29T01:31:08;24.92;;;4.47;;
55489;SDS011;44029;52.956;4.772;2022-12-29T01:33:35;15.00;;;2.45;;
55489;SDS011;44029;52.956;4.772;2022-12-29T01:36:04;24.65;;;3.65;;
55489;SDS011;44029;52.956;4.772;2022-12-29T01:38:32;23.70;;;3.03;;
55489;SDS011;44029;52.956;4.772;2022-12-29T01:40:58;28.88;;;4.72;;
55489;SDS011;44029;52.956;4.772;2022-12-29T01:43:42;11.27;;;2.63;;
55489;SDS011;44029;52.956;4.772;2022-12-29T01:48:46;16.90;;;2.35;;
55489;SDS011;44029;52.956;4.772;2022-12-29T01:51:16;23.35;;;3.83;;
55489;SDS011;44029;52.956;4.772;2022-12-29T01:53:41;20.17;;;2.47;;
55489;SDS011;44029;52.956;4.772;2022-12-29T01:56:09;26.60;;;2.28;;
55489;SDS011;44029;52.956;4.772;2022-12-29T01:58:39;21.90;;;3.60;;
55489;SDS011;44029;52.956;4.772;2022-12-29T02:01:09;16.73;;;1.98;;
55489;SDS011;44029;52.956;4.772;2022-12-29T02:03:36;21.50;;;2.70;;
55489;SDS011;44029;52.956;4.772;2022-12-29T02:06:12;21.42;;;2.22;;
55489;SDS011;44029;52.956;4.772;2022-12-29T02:08:46;10.95;;;1.65;;
55489;SDS011;44029;52.956;4.772;2022-12-29T02:11:12;24.10;;;2.35;;
55489;SDS011;44029;52.956;4.772;2022-12-29T02:13:38;30.83;;;7.28;;
55489;SDS011;44029;52.956;4.772;2022-12-29T02:16:07;24.67;;;2.65;;
55489;SDS011;44029;52.956;4.772;2022-12-29T02:21:22;15.68;;;2.65;;
55489;SDS011;44029;52.956;4.772;2022-12-29T02:29:53;13.30;;;2.42;;
55489;SDS011;44029;52.956;4.772;2022-12-29T02:32:46;21.08;;;2.90;;
55489;SDS011;44029;52.956;4.772;2022-12-29T02:35:53;16.75;;;2.78;;
55489;SDS011;44029;52.956;4.772;2022-12-29T02:38:49;17.70;;;2.95;;
55489;SDS011;44029;52.956;4.772;2022-12-29T02:41:37;25.48;;;4.32;;
55489;SDS011;44029;52.956;4.772;2022-12-29T02:44:25;17.58;;;3.67;;
55489;SDS011;44029;52.956;4.772;2022-12-29T02:49:35;28.13;;;3.67;;
55489;SDS011;44029;52.956;4.772;2022-12-29T02:54:32;27.38;;;3.28;;
55489;SDS011;44029;52.956;4.772;2022-12-29T02:57:10;32.67;;;5.90;;
55489;SDS011;44029;52.956;4.772;2022-12-29T02:59:38;26.67;;;4.28;;
55489;SDS011;44029;52.956;4.772;2022-12-29T03:04:56;40.97;;;5.47;;
55489;SDS011;44029;52.956;4.772;2022-12-29T03:13:06;33.35;;;3.92;;
55489;SDS011;44029;52.956;4.772;2022-12-29T03:19:00;31.17;;;3.42;;
55489;SDS011;44029;52.956;4.772;2022-12-29T03:21:43;44.30;;;4.47;;
55489;SDS011;44029;52.956;4.772;2022-12-29T03:24:31;29.52;;;3.25;;
55489;SDS011;44029;52.956;4.772;2022-12-29T03:27:01;19.92;;;3.13;;
55489;SDS011;44029;52.956;4.772;2022-12-29T03:29:29;32.85;;;3.72;;
55489;SDS011;44029;52.956;4.772;2022-12-29T03:31:59;20.52;;;3.45;;
55489;SDS011;44029;52.956;4.772;2022-12-29T03:34:26;33.58;;;3.78;;
55489;SDS011;44029;52.956;4.772;2022-12-29T03:36:56;27.38;;;3.95;;
55489;SDS011;44029;52.956;4.772;2022-12-29T03:39:26;28.25;;;3.83;;
55489;SDS011;44029;52.956;4.772;2022-12-29T03:41:57;27.83;;;4.35;;
55489;SDS011;44029;52.956;4.772;2022-12-29T03:44:34;28.20;;;3.65;;
55489;SDS011;44029;52.956;4.772;2022-12-29T03:47:01;39.17;;;4.72;;
55489;SDS011;44029;52.956;4.772;2022-12-29T03:49:27;41.63;;;4.93;;
55489;SDS011;44029;52.956;4.772;2022-12-29T03:51:53;37.55;;;4.20;;
55489;SDS011;44029;52.956;4.772;2022-12-29T03:54:18;45.35;;;4.18;;
55489;SDS011;44029;52.956;4.772;2022-12-29T03:56:43;38.10;;;4.32;;
55489;SDS011;44029;52.956;4.772;2022-12-29T03:59:09;38.63;;;3.78;;
55489;SDS011;44029;52.956;4.772;2022-12-29T04:01:34;36.83;;;4.85;;
55489;SDS011;44029;52.956;4.772;2022-12-29T04:03:59;29.92;;;4.32;;
55489;SDS011;44029;52.956;4.772;2022-12-29T04:06:25;34.40;;;4.18;;
55489;SDS011;44029;52.956;4.772;2022-12-29T04:08:50;41.38;;;4.32;;
55489;SDS011;44029;52.956;4.772;2022-12-29T04:11:15;56.00;;;4.75;;
55489;SDS011;44029;52.956;4.772;2022-12-29T04:13:41;39.83;;;4.97;;
55489;SDS011;44029;52.956;4.772;2022-12-29T04:16:06;48.80;;;5.40;;
55489;SDS011;44029;52.956;4.772;2022-12-29T04:18:33;26.77;;;3.75;;
55489;SDS011;44029;52.956;4.772;2022-12-29T04:20:58;40.33;;;6.20;;
55489;SDS011;44029;52.956;4.772;2022-12-29T04:23:28;37.00;;;4.70;;
55489;SDS011;44029;52.956;4.772;2022-12-29T04:25:54;27.13;;;3.92;;
55489;SDS011;44029;52.956;4.772;2022-12-29T04:28:19;46.65;;;4.60;;
55489;SDS011;44029;52.956;4.772;2022-12-29T04:30:45;47.88;;;4.93;;
55489;SDS011;44029;52.956;4.772;2022-12-29T04:33:11;26.08;;;4.05;;
55489;SDS011;44029;52.956;4.772;2022-12-29T04:35:37;35.22;;;5.43;;
55489;SDS011;44029;52.956;4.772;2022-12-29T04:38:02;32.92;;;4.82;;
55489;SDS011;44029;52.956;4.772;2022-12-29T04:40:28;34.30;;;5.53;;
55489;SDS011;44029;52.956;4.772;2022-12-29T04:42:53;47.05;;;4.82;;
55489;SDS011;44029;52.956;4.772;2022-12-29T04:45:19;36.50;;;6.55;;
55489;SDS011;44029;52.956;4.772;2022-12-29T04:47:44;42.53;;;4.53;;
55489;SDS011;44029;52.956;4.772;2022-12-29T04:50:09;40.63;;;3.83;;
55489;SDS011;44029;52.956;4.772;2022-12-29T04:52:35;45.47;;;6.03;;
55489;SDS011;44029;52.956;4.772;2022-12-29T04:55:01;19.63;;;3.35;;
55489;SDS011;44029;52.956;4.772;2022-12-29T04:57:26;22.02;;;3.30;;
55489;SDS011;44029;52.956;4.772;2022-12-29T04:59:51;31.05;;;4.53;;
55489;SDS011;44029;52.956;4.772;2022-12-29T05:02:17;38.15;;;3.70;;
55489;SDS011;44029;52.956;4.772;2022-12-29T05:04:42;13.95;;;2.67;;
55489;SDS011;44029;52.956;4.772;2022-12-29T05:07:08;32.10;;;3.88;;
55489;SDS011;44029;52.956;4.772;2022-12-29T05:09:33;20.27;;;4.93;;
55489;SDS011;44029;52.956;4.772;2022-12-29T05:11:58;33.95;;;3.67;;
55489;SDS011;44029;52.956;4.772;2022-12-29T05:14:24;25.10;;;3.47;;
55489;SDS011;44029;52.956;4.772;2022-12-29T05:16:49;40.85;;;3.53;;
55489;SDS011;44029;52.956;4.772;2022-12-29T05:19:15;33.55;;;4.68;;
55489;SDS011;44029;52.956;4.772;2022-12-29T05:21:41;33.10;;;4.95;;
55489;SDS011;44029;52.956;4.772;2022-12-29T05:24:06;27.90;;;3.55;;
55489;SDS011;44029;52.956;4.772;2022-12-29T05:26:32;41.38;;;4.70;;
55489;SDS011;44029;52.956;4.772;2022-12-29T05:28:57;43.45;;;4.53;;
55489;SDS011;44029;52.956;4.772;2022-12-29T05:31:23;33.60;;;4.38;;
55489;SDS011;44029;52.956;4.772;2022-12-29T05:33:48;39.92;;;5.45;;
55489;SDS011;44029;52.956;4.772;2022-12-29T05:36:13;32.28;;;4.10;;
55489;SDS011;44029;52.956;4.772;2022-12-29T05:38:39;35.40;;;4.32;;
55489;SDS011;44029;52.956;4.772;2022-12-29T05:41:04;25.67;;;4.18;;
55489;SDS011;44029;52.956;4.772;2022-12-29T05:43:29;43.88;;;4.97;;
55489;SDS011;44029;52.956;4.772;2022-12-29T05:45:55;32.15;;;4.70;;
55489;SDS011;44029;52.956;4.772;2022-12-29T05:48:21;37.60;;;4.93;;
55489;SDS011;44029;52.956;4.772;2022-12-29T05:50:47;46.42;;;5.68;;
55489;SDS011;44029;52.956;4.772;2022-12-29T05:53:13;35.42;;;4.28;;
55489;SDS011;44029;52.956;4.772;2022-12-29T05:55:39;38.67;;;4.93;;
55489;SDS011;44029;52.956;4.772;2022-12-29T05:58:04;37.33;;;5.35;;
55489;SDS011;44029;52.956;4.772;2022-12-29T06:00:30;32.35;;;5.70;;
55489;SDS011;44029;52.956;4.772;2022-12-29T06:02:55;33.20;;;5.43;;
55489;SDS011;44029;52.956;4.772;2022-12-29T06:05:21;34.13;;;4.45;;
55489;SDS011;44029;52.956;4.772;2022-12-29T06:07:46;41.50;;;5.93;;
55489;SDS011;44029;52.956;4.772;2022-12-29T06:10:11;27.52;;;4.10;;
55489;SDS011;44029;52.956;4.772;2022-12-29T06:12:37;24.77;;;3.92;;
55489;SDS011;44029;52.956;4.772;2022-12-29T06:15:02;37.38;;;4.63;;
55489;SDS011;44029;52.956;4.772;2022-12-29T06:17:28;41.47;;;4.93;;
55489;SDS011;44029;52.956;4.772;2022-12-29T06:19:53;43.47;;;4.47;;
55489;SDS011;44029;52.956;4.772;2022-12-29T06:22:19;39.80;;;5.45;;
55489;SDS011;44029;52.956;4.772;2022-12-29T06:24:44;42.22;;;4.45;;
55489;SDS011;44029;52.956;4.772;2022-12-29T06:27:10;50.63;;;5.30;;
55489;SDS011;44029;52.956;4.772;2022-12-29T06:29:35;46.03;;;5.55;;
55489;SDS011;44029;52.956;4.772;2022-12-29T06:32:02;37.25;;;5.47;;
55489;SDS011;44029;52.956;4.772;2022-12-29T06:34:28;37.88;;;5.47;;
55489;SDS011;44029;52.956;4.772;2022-12-29T06:36:53;43.85;;;6.20;;
55489;SDS011;44029;52.956;4.772;2022-12-29T06:39:19;43.83;;;5.65;;
55489;SDS011;44029;52.956;4.772;2022-12-29T06:41:44;46.17;;;5.22;;
55489;SDS011;44029;52.956;4.772;2022-12-29T06:44:10;50.00;;;5.53;;
55489;SDS011;44029;52.956;4.772;2022-12-29T06:46:35;51.35;;;6.80;;
55489;SDS011;44029;52.956;4.772;2022-12-29T06:49:00;44.30;;;4.80;;
55489;SDS011;44029;52.956;4.772;2022-12-29T06:51:26;44.05;;;7.25;;
55489;SDS011;44029;52.956;4.772;2022-12-29T06:53:51;26.63;;;3.25;;
55489;SDS011;44029;52.956;4.772;2022-12-29T06:56:16;25.40;;;3.53;;
55489;SDS011;44029;52.956;4.772;2022-12-29T06:58:42;35.83;;;5.03;;
55489;SDS011;44029;52.956;4.772;2022-12-29T07:01:07;34.05;;;5.07;;
55489;SDS011;44029;52.956;4.772;2022-12-29T07:03:32;37.13;;;5.18;;
55489;SDS011;44029;52.956;4.772;2022-12-29T07:05:58;28.63;;;4.00;;
55489;SDS011;44029;52.956;4.772;2022-12-29T07:08:23;36.35;;;5.10;;
55489;SDS011;44029;52.956;4.772;2022-12-29T07:10:49;37.75;;;4.13;;
55489;SDS011;44029;52.956;4.772;2022-12-29T07:13:14;37.35;;;4.68;;
55489;SDS011;44029;52.956;4.772;2022-12-29T07:15:40;32.03;;;4.32;;
55489;SDS011;44029;52.956;4.772;2022-12-29T07:18:05;41.58;;;5.40;;
55489;SDS011;44029;52.956;4.772;2022-12-29T07:20:31;24.95;;;4.28;;
55489;SDS011;44029;52.956;4.772;2022-12-29T07:22:57;34.95;;;7.32;;
55489;SDS011;44029;52.956;4.772;2022-12-29T07:25:22;33.88;;;6.80;;
55489;SDS011;44029;52.956;4.772;2022-12-29T07:27:48;41.97;;;5.40;;
55489;SDS011;44029;52.956;4.772;2022-12-29T07:30:14;18.55;;;3.47;;
55489;SDS011;44029;52.956;4.772;2022-12-29T07:32:39;30.52;;;4.43;;
55489;SDS011;44029;52.956;4.772;2022-12-29T07:35:05;33.20;;;4.43;;
55489;SDS011;44029;52.956;4.772;2022-12-29T07:37:31;35.47;;;4.45;;
55489;SDS011;44029;52.956;4.772;2022-12-29T07:39:56;34.22;;;4.15;;
55489;SDS011;44029;52.956;4.772;2022-12-29T07:42:22;34.53;;;5.28;;
55489;SDS011;44029;52.956;4.772;2022-12-29T07:44:47;27.73;;;3.50;;
55489;SDS011;44029;52.956;4.772;2022-12-29T07:47:12;40.67;;;4.47;;
55489;SDS011;44029;52.956;4.772;2022-12-29T07:49:38;44.88;;;5.00;;
55489;SDS011;44029;52.956;4.772;2022-12-29T07:52:03;33.08;;;4.32;;
55489;SDS011;44029;52.956;4.772;2022-12-29T07:54:29;40.65;;;5.30;;
55489;SDS011;44029;52.956;4.772;2022-12-29T07:56:54;35.75;;;4.95;;
55489;SDS011;44029;52.956;4.772;2022-12-29T07:59:19;41.97;;;4.93;;
55489;SDS011;44029;52.956;4.772;2022-12-29T08:01:45;40.75;;;3.95;;
55489;SDS011;44029;52.956;4.772;2022-12-29T08:04:10;36.10;;;4.75;;
55489;SDS011;44029;52.956;4.772;2022-12-29T08:06:35;34.78;;;6.15;;
55489;SDS011;44029;52.956;4.772;2022-12-29T08:09:02;33.65;;;5.32;;
55489;SDS011;44029;52.956;4.772;2022-12-29T08:11:28;48.13;;;5.70;;
55489;SDS011;44029;52.956;4.772;2022-12-29T08:13:54;40.05;;;4.75;;
55489;SDS011;44029;52.956;4.772;2022-12-29T08:16:19;35.83;;;5.65;;
55489;SDS011;44029;52.956;4.772;2022-12-29T08:18:45;32.25;;;5.60;;
55489;SDS011;44029;52.956;4.772;2022-12-29T08:21:10;43.40;;;6.03;;
55489;SDS011;44029;52.956;4.772;2022-12-29T08:23:36;41.35;;;4.82;;
55489;SDS011;44029;52.956;4.772;2022-12-29T08:26:02;42.13;;;5.80;;
55489;SDS011;44029;52.956;4.772;2022-12-29T08:28:30;32.63;;;5.50;;
55489;SDS011;44029;52.956;4.772;2022-12-29T08:30:59;38.65;;;6.55;;
55489;SDS011;44029;52.956;4.772;2022-12-29T08:33:26;47.95;;;5.47;;
55489;SDS011;44029;52.956;4.772;2022-12-29T08:35:52;51.40;;;6.85;;
55489;SDS011;44029;52.956;4.772;2022-12-29T08:38:17;39.08;;;5.03;;
55489;SDS011;44029;52.956;4.772;2022-12-29T08:40:43;58.53;;;6.18;;
55489;SDS011;44029;52.956;4.772;2022-12-29T08:43:08;51.65;;;6.30;;
55489;SDS011;44029;52.956;4.772;2022-12-29T08:45:34;42.30;;;5.88;;
55489;SDS011;44029;52.956;4.772;2022-12-29T08:48:00;41.95;;;5.55;;
55489;SDS011;44029;52.956;4.772;2022-12-29T08:50:25;34.80;;;5.35;;
55489;SDS011;44029;52.956;4.772;2022-12-29T08:52:51;42.38;;;5.65;;
55489;SDS011;44029;52.956;4.772;2022-12-29T08:55:16;32.58;;;4.97;;
55489;SDS011;44029;52.956;4.772;2022-12-29T08:57:41;40.85;;;5.03;;
55489;SDS011;44029;52.956;4.772;2022-12-29T09:00:07;54.17;;;5.85;;
55489;SDS011;44029;52.956;4.772;2022-12-29T09:02:33;32.45;;;5.53;;
55489;SDS011;44029;52.956;4.772;2022-12-29T09:04:58;53.78;;;7.53;;
55489;SDS011;44029;52.956;4.772;2022-12-29T09:07:25;32.03;;;4.35;;
55489;SDS011;44029;52.956;4.772;2022-12-29T09:09:50;36.72;;;4.55;;
55489;SDS011;44029;52.956;4.772;2022-12-29T09:12:16;53.28;;;5.32;;
55489;SDS011;44029;52.956;4.772;2022-12-29T09:14:42;28.75;;;4.32;;
55489;SDS011;44029;52.956;4.772;2022-12-29T09:17:09;41.60;;;5.07;;
55489;SDS011;44029;52.956;4.772;2022-12-29T09:19:53;27.08;;;3.13;;
55489;SDS011;44029;52.956;4.772;2022-12-29T09:22:18;24.15;;;3.58;;
55489;SDS011;44029;52.956;4.772;2022-12-29T09:24:44;24.45;;;3.55;;
55489;SDS011;44029;52.956;4.772;2022-12-29T09:27:09;18.02;;;2.83;;
55489;SDS011;44029;52.956;4.772;2022-12-29T09:29:35;13.45;;;2.92;;
55489;SDS011;44029;52.956;4.772;2022-12-29T09:32:00;14.77;;;2.38;;
55489;SDS011;44029;52.956;4.772;2022-12-29T09:34:25;20.38;;;3.97;;
55489;SDS011;44029;52.956;4.772;2022-12-29T09:36:51;12.77;;;1.95;;
55489;SDS011;44029;52.956;4.772;2022-12-29T09:39:16;16.88;;;2.75;;
55489;SDS011;44029;52.956;4.772;2022-12-29T09:41:43;10.43;;;2.03;;
55489;SDS011;44029;52.956;4.772;2022-12-29T09:44:18;13.10;;;2.50;;
55489;SDS011;44029;52.956;4.772;2022-12-29T09:46:51;17.98;;;2.22;;
55489;SDS011;44029;52.956;4.772;2022-12-29T09:52:21;23.17;;;3.17;;
55489;SDS011;44029;52.956;4.772;2022-12-29T09:57:23;15.90;;;2.15;;
55489;SDS011;44029;52.956;4.772;2022-12-29T09:59:54;27.05;;;2.83;;
55489;SDS011;44029;52.956;4.772;2022-12-29T10:02:29;20.33;;;2.47;;
55489;SDS011;44029;52.956;4.772;2022-12-29T10:05:03;22.02;;;2.60;;
55489;SDS011;44029;52.956;4.772;2022-12-29T10:07:44;20.35;;;2.85;;
55489;SDS011;44029;52.956;4.772;2022-12-29T10:10:20;11.57;;;2.35;;
55489;SDS011;44029;52.956;4.772;2022-12-29T10:23:40;16.70;;;2.35;;
55489;SDS011;44029;52.956;4.772;2022-12-29T10:26:15;19.48;;;3.38;;
55489;SDS011;44029;52.956;4.772;2022-12-29T10:28:53;15.95;;;1.83;;
55489;SDS011;44029;52.956;4.772;2022-12-29T10:31:33;25.50;;;2.55;;
55489;SDS011;44029;52.956;4.772;2022-12-29T10:34:01;8.27;;;1.98;;
55489;SDS011;44029;52.956;4.772;2022-12-29T10:36:33;24.88;;;2.67;;
55489;SDS011;44029;52.956;4.772;2022-12-29T10:41:46;19.48;;;2.50;;
55489;SDS011;44029;52.956;4.772;2022-12-29T10:44:16;8.30;;;1.50;;
55489;SDS011;44029;52.956;4.772;2022-12-29T10:46:54;4.95;;;1.63;;
55489;SDS011;44029;52.956;4.772;2022-12-29T10:49:22;8.52;;;1.45;;
55489;SDS011;44029;52.956;4.772;2022-12-29T10:51:51;13.35;;;1.65;;
55489;SDS011;44029;52.956;4.772;2022-12-29T10:57:01;12.80;;;1.50;;
55489;SDS011;44029;52.956;4.772;2022-12-29T10:59:34;11.95;;;1.73;;
55489;SDS011;44029;52.956;4.772;2022-12-29T11:07:34;15.55;;;2.03;;
55489;SDS011;44029;52.956;4.772;2022-12-29T11:10:21;10.38;;;1.85;;
55489;SDS011;44029;52.956;4.772;2022-12-29T11:13:11;17.85;;;1.80;;
55489;SDS011;44029;52.956;4.772;2022-12-29T11:15:43;12.65;;;1.70;;
55489;SDS011;44029;52.956;4.772;2022-12-29T11:18:21;15.30;;;2.30;;
55489;SDS011;44029;52.956;4.772;2022-12-29T11:20:52;13.13;;;2.55;;
55489;SDS011;44029;52.956;4.772;2022-12-29T11:23:24;18.27;;;2.03;;
55489;SDS011;44029;52.956;4.772;2022-12-29T11:28:35;20.02;;;2.55;;
55489;SDS011;44029;52.956;4.772;2022-12-29T11:31:03;12.18;;;2.65;;
55489;SDS011;44029;52.956;4.772;2022-12-29T11:33:30;14.68;;;2.08;;
55489;SDS011;44029;52.956;4.772;2022-12-29T11:38:52;9.35;;;1.58;;
55489;SDS011;44029;52.956;4.772;2022-12-29T11:41:25;12.55;;;2.22;;
55489;SDS011;44029;52.956;4.772;2022-12-29T11:43:56;13.73;;;3.85;;
55489;SDS011;44029;52.956;4.772;2022-12-29T11:46:25;14.25;;;2.38;;
55489;SDS011;44029;52.956;4.772;2022-12-29T11:48:54;25.23;;;2.70;;
55489;SDS011;44029;52.956;4.772;2022-12-29T11:51:24;28.10;;;4.20;;
55489;SDS011;44029;52.956;4.772;2022-12-29T11:53:53;12.52;;;2.53;;
55489;SDS011;44029;52.956;4.772;2022-12-29T11:56:36;7.65;;;1.92;;
55489;SDS011;44029;52.956;4.772;2022-12-29T11:59:40;13.73;;;2.03;;
55489;SDS011;44029;52.956;4.772;2022-12-29T12:05:20;16.58;;;2.05;;
55489;SDS011;44029;52.956;4.772;2022-12-29T12:07:50;8.93;;;2.25;;
55489;SDS011;44029;52.956;4.772;2022-12-29T12:10:27;12.27;;;2.03;;
55489;SDS011;44029;52.956;4.772;2022-12-29T12:13:07;8.25;;;1.88;;
55489;SDS011;44029;52.956;4.772;2022-12-29T12:15:54;21.52;;;3.10;;
55489;SDS011;44029;52.956;4.772;2022-12-29T12:18:37;17.98;;;2.20;;
55489;SDS011;44029;52.956;4.772;2022-12-29T12:21:14;17.00;;;2.35;;
55489;SDS011;44029;52.956;4.772;2022-12-29T12:26:34;12.45;;;1.65;;
55489;SDS011;44029;52.956;4.772;2022-12-29T12:29:12;20.35;;;2.72;;
55489;SDS011;44029;52.956;4.772;2022-12-29T12:34:17;15.15;;;2.13;;
55489;SDS011;44029;52.956;4.772;2022-12-29T12:42:40;14.15;;;2.50;;
55489;SDS011;44029;52.956;4.772;2022-12-29T12:51:44;22.70;;;4.03;;
55489;SDS011;44029;52.956;4.772;2022-12-29T12:57:17;19.88;;;2.05;;
55489;SDS011;44029;52.956;4.772;2022-12-29T13:00:08;17.20;;;2.20;;
55489;SDS011;44029;52.956;4.772;2022-12-29T13:02:46;20.80;;;2.83;;
55489;SDS011;44029;52.956;4.772;2022-12-29T13:10:57;16.02;;;2.22;;
55489;SDS011;44029;52.956;4.772;2022-12-29T13:19:19;8.82;;;1.52;;
55489;SDS011;44029;52.956;4.772;2022-12-29T13:22:07;21.48;;;2.75;;
55489;SDS011;44029;52.956;4.772;2022-12-29T13:25:01;17.73;;;2.40;;
55489;SDS011;44029;52.956;4.772;2022-12-29T13:27:34;17.48;;;2.72;;
55489;SDS011;44029;52.956;4.772;2022-12-29T13:36:49;11.70;;;2.22;;
55489;SDS011;44029;52.956;4.772;2022-12-29T13:39:19;14.60;;;2.40;;
55489;SDS011;44029;52.956;4.772;2022-12-29T13:42:06;10.60;;;2.15;;
55489;SDS011;44029;52.956;4.772;2022-12-29T13:44:37;17.00;;;2.15;;
55489;SDS011;44029;52.956;4.772;2022-12-29T13:49:44;22.88;;;3.58;;
55489;SDS011;44029;52.956;4.772;2022-12-29T13:55:02;16.70;;;2.50;;
55489;SDS011;44029;52.956;4.772;2022-12-29T14:03:34;35.05;;;10.65;;
55489;SDS011;44029;52.956;4.772;2022-12-29T14:06:21;15.17;;;4.53;;
55489;SDS011;44029;52.956;4.772;2022-12-29T14:08:52;13.05;;;2.20;;
55489;SDS011;44029;52.956;4.772;2022-12-29T14:11:32;23.05;;;2.92;;
55489;SDS011;44029;52.956;4.772;2022-12-29T14:14:10;15.60;;;2.30;;
55489;SDS011;44029;52.956;4.772;2022-12-29T14:16:46;13.40;;;2.15;;
55489;SDS011;44029;52.956;4.772;2022-12-29T14:21:40;18.75;;;3.85;;
55489;SDS011;44029;52.956;4.772;2022-12-29T14:26:59;16.02;;;2.50;;
55489;SDS011;44029;52.956;4.772;2022-12-29T14:31:51;25.50;;;2.67;;
55489;SDS011;44029;52.956;4.772;2022-12-29T14:39:30;23.13;;;3.05;;
55489;SDS011;44029;52.956;4.772;2022-12-29T14:44:53;17.45;;;2.63;;
55489;SDS011;44029;52.956;4.772;2022-12-29T14:49:55;21.38;;;2.67;;
55489;SDS011;44029;52.956;4.772;2022-12-29T14:52:27;22.55;;;6.72;;
55489;SDS011;44029;52.956;4.772;2022-12-29T14:54:56;23.55;;;2.63;;
55489;SDS011;44029;52.956;4.772;2022-12-29T14:57:29;23.05;;;3.38;;
55489;SDS011;44029;52.956;4.772;2022-12-29T15:00:01;18.13;;;2.05;;
55489;SDS011;44029;52.956;4.772;2022-12-29T15:02:32;29.30;;;3.13;;
55489;SDS011;44029;52.956;4.772;2022-12-29T15:05:03;19.65;;;2.78;;
55489;SDS011;44029;52.956;4.772;2022-12-29T15:07:31;17.00;;;2.45;;
55489;SDS011;44029;52.956;4.772;2022-12-29T15:10:05;7.47;;;2.25;;
55489;SDS011;44029;52.956;4.772;2022-12-29T15:12:38;19.95;;;2.17;;
55489;SDS011;44029;52.956;4.772;2022-12-29T15:15:17;26.85;;;5.47;;
55489;SDS011;44029;52.956;4.772;2022-12-29T15:17:46;10.95;;;3.20;;
55489;SDS011;44029;52.956;4.772;2022-12-29T15:22:49;31.48;;;3.88;;
55489;SDS011;44029;52.956;4.772;2022-12-29T15:27:59;13.98;;;3.17;;
55489;SDS011;44029;52.956;4.772;2022-12-29T15:30:27;15.73;;;2.03;;
55489;SDS011;44029;52.956;4.772;2022-12-29T15:32:52;23.05;;;2.22;;
55489;SDS011;44029;52.956;4.772;2022-12-29T15:35:52;18.95;;;2.40;;
55489;SDS011;44029;52.956;4.772;2022-12-29T15:38:15;12.25;;;2.95;;
55489;SDS011;44029;52.956;4.772;2022-12-29T15:40:47;22.00;;;2.63;;
55489;SDS011;44029;52.956;4.772;2022-12-29T15:43:30;18.80;;;2.90;;
55489;SDS011;44029;52.956;4.772;2022-12-29T15:46:00;20.17;;;2.67;;
55489;SDS011;44029;52.956;4.772;2022-12-29T15:48:26;20.70;;;3.45;;
55489;SDS011;44029;52.956;4.772;2022-12-29T15:50:53;30.77;;;11.70;;
55489;SDS011;44029;52.956;4.772;2022-12-29T15:53:23;21.85;;;2.85;;
55489;SDS011;44029;52.956;4.772;2022-12-29T15:55:59;24.90;;;2.72;;
55489;SDS011;44029;52.956;4.772;2022-12-29T15:58:30;16.77;;;2.90;;
55489;SDS011;44029;52.956;4.772;2022-12-29T16:01:04;13.35;;;2.08;;
55489;SDS011;44029;52.956;4.772;2022-12-29T16:03:31;17.25;;;2.20;;
55489;SDS011;44029;52.956;4.772;2022-12-29T16:06:10;40.23;;;4.53;;
55489;SDS011;44029;52.956;4.772;2022-12-29T16:08:56;15.05;;;3.45;;
55489;SDS011;44029;52.956;4.772;2022-12-29T16:11:26;17.52;;;2.72;;
55489;SDS011;44029;52.956;4.772;2022-12-29T16:13:57;21.35;;;3.00;;
55489;SDS011;44029;52.956;4.772;2022-12-29T16:18:52;24.77;;;3.35;;
55489;SDS011;44029;52.956;4.772;2022-12-29T16:21:19;25.83;;;3.58;;
55489;SDS011;44029;52.956;4.772;2022-12-29T16:23:49;11.18;;;3.15;;
55489;SDS011;44029;52.956;4.772;2022-12-29T16:26:16;44.90;;;11.43;;
55489;SDS011;44029;52.956;4.772;2022-12-29T16:28:43;19.05;;;3.20;;
55489;SDS011;44029;52.956;4.772;2022-12-29T16:31:25;14.68;;;2.53;;
55489;SDS011;44029;52.956;4.772;2022-12-29T16:33:57;25.85;;;5.35;;
55489;SDS011;44029;52.956;4.772;2022-12-29T16:38:50;20.52;;;2.58;;
55489;SDS011;44029;52.956;4.772;2022-12-29T16:41:28;20.30;;;3.53;;
55489;SDS011;44029;52.956;4.772;2022-12-29T16:49:37;12.95;;;2.38;;
55489;SDS011;44029;52.956;4.772;2022-12-29T16:52:17;20.80;;;2.53;;
55489;SDS011;44029;52.956;4.772;2022-12-29T16:54:55;18.10;;;4.00;;
55489;SDS011;44029;52.956;4.772;2022-12-29T16:57:29;14.85;;;2.65;;
55489;SDS011;44029;52.956;4.772;2022-12-29T17:00:04;17.65;;;2.72;;
55489;SDS011;44029;52.956;4.772;2022-12-29T17:02:31;6.40;;;1.67;;
55489;SDS011;44029;52.956;4.772;2022-12-29T17:04:58;15.57;;;3.70;;
55489;SDS011;44029;52.956;4.772;2022-12-29T17:07:25;21.75;;;3.50;;
55489;SDS011;44029;52.956;4.772;2022-12-29T17:09:52;17.88;;;2.17;;
55489;SDS011;44029;52.956;4.772;2022-12-29T17:12:28;10.57;;;1.88;;
55489;SDS011;44029;52.956;4.772;2022-12-29T17:22:46;9.10;;;2.88;;
55489;SDS011;44029;52.956;4.772;2022-12-29T17:25:17;17.23;;;2.45;;
55489;SDS011;44029;52.956;4.772;2022-12-29T17:27:44;10.43;;;1.83;;
55489;SDS011;44029;52.956;4.772;2022-12-29T17:30:19;11.43;;;2.33;;
55489;SDS011;44029;52.956;4.772;2022-12-29T17:33:05;16.48;;;1.92;;